createdAt,value
2017-09-29T00:00:36.946Z,101541
2017-09-29T00:03:05.832Z,101548
2017-09-29T00:05:33.907Z,101548
2017-09-29T00:08:02.765Z,101550
2017-09-29T00:10:30.872Z,101552
2017-09-29T00:12:59.720Z,101543
2017-09-29T00:15:27.834Z,101547
2017-09-29T00:17:56.701Z,101548
2017-09-29T00:20:24.796Z,101548
2017-09-29T00:22:53.647Z,101551
2017-09-29T00:25:22.664Z,101545
2017-09-29T00:27:50.771Z,101546
2017-09-29T00:30:18.905Z,101543
2017-09-29T00:32:47.028Z,101545
2017-09-29T00:35:15.124Z,101535
2017-09-29T00:37:43.210Z,101536
2017-09-29T00:40:11.327Z,101545
2017-09-29T00:42:39.433Z,101532
2017-09-29T00:45:07.535Z,101529
2017-09-29T00:47:35.647Z,101526
2017-09-29T00:50:03.751Z,101524
2017-09-29T00:52:31.854Z,101526
2017-09-29T00:54:59.969Z,101530
2017-09-29T00:57:28.056Z,101525
2017-09-29T00:59:56.137Z,101525
2017-09-29T01:02:24.248Z,101524
2017-09-29T01:04:52.344Z,101349
2017-09-29T01:07:20.451Z,101515
2017-09-29T01:09:48.558Z,101521
2017-09-29T01:12:16.663Z,101518
2017-09-29T01:14:44.756Z,101520
2017-09-29T01:17:12.873Z,101521
2017-09-29T01:19:41.030Z,101519
2017-09-29T01:22:09.128Z,101518
2017-09-29T01:24:37.236Z,101521
2017-09-29T01:27:05.336Z,101528
2017-09-29T01:29:33.452Z,101522
2017-09-29T01:32:03.219Z,101526
2017-09-29T01:34:31.331Z,101522
2017-09-29T01:36:59.439Z,101523
2017-09-29T01:39:27.534Z,101523
2017-09-29T01:41:55.644Z,101517
2017-09-29T01:44:23.737Z,101519
2017-09-29T01:46:51.874Z,101506
2017-09-29T01:49:19.964Z,101508
2017-09-29T01:51:48.290Z,101509
2017-09-29T01:54:16.455Z,101505
2017-09-29T01:56:44.573Z,101504
2017-09-29T01:59:12.658Z,101495
2017-09-29T02:01:40.762Z,101503
2017-09-29T02:04:09.708Z,101499
2017-09-29T02:06:37.796Z,101496
2017-09-29T02:09:05.971Z,101488
2017-09-29T02:11:34.063Z,101482
2017-09-29T02:14:02.942Z,101487
2017-09-29T02:16:31.051Z,101486
2017-09-29T02:18:59.143Z,101492
2017-09-29T02:21:27.235Z,101480
2017-09-29T02:23:55.337Z,101483
2017-09-29T02:26:23.459Z,101474
2017-09-29T02:28:51.602Z,101477
2017-09-29T02:31:19.704Z,101476
2017-09-29T02:33:47.875Z,101483
2017-09-29T02:36:16.029Z,101479
2017-09-29T02:38:44.135Z,101479
2017-09-29T02:41:12.255Z,101480
2017-09-29T02:43:41.184Z,101476
2017-09-29T02:46:09.269Z,101474
2017-09-29T02:48:37.384Z,101479
2017-09-29T02:51:06.644Z,101484
2017-09-29T02:53:34.751Z,101481
2017-09-29T02:56:02.920Z,101475
2017-09-29T02:58:32.201Z,101475
2017-09-29T03:01:01.792Z,101471
2017-09-29T03:03:33.461Z,101474
2017-09-29T03:06:02.879Z,101464
2017-09-29T03:08:30.976Z,101472
2017-09-29T03:10:59.853Z,101473
2017-09-29T03:13:29.664Z,101473
2017-09-29T03:15:58.534Z,101469
2017-09-29T03:18:26.637Z,101476
2017-09-29T03:20:55.596Z,101464
2017-09-29T03:23:23.733Z,101473
2017-09-29T03:25:51.816Z,101463
2017-09-29T03:28:19.935Z,101454
2017-09-29T03:30:48.052Z,101468
2017-09-29T03:33:16.338Z,101473
2017-09-29T03:35:44.444Z,101465
2017-09-29T03:38:13.554Z,101460
2017-09-29T03:40:42.422Z,101463
2017-09-29T03:43:10.557Z,101462
2017-09-29T03:45:38.649Z,101472
2017-09-29T03:48:06.776Z,101468
2017-09-29T03:50:36.960Z,101469
2017-09-29T03:53:07.175Z,101462
2017-09-29T03:55:36.946Z,101468
2017-09-29T03:58:06.488Z,101467
2017-09-29T04:00:35.419Z,101465
2017-09-29T04:03:03.503Z,101465
2017-09-29T04:05:32.371Z,101463
2017-09-29T04:08:00.496Z,101463
2017-09-29T04:10:28.591Z,101467
2017-09-29T04:12:56.699Z,101469
2017-09-29T04:15:24.784Z,101471
2017-09-29T04:17:53.671Z,101463
2017-09-29T04:20:21.764Z,101467
2017-09-29T04:22:49.862Z,101461
2017-09-29T04:25:18.018Z,101456
2017-09-29T04:27:47.023Z,101465
2017-09-29T04:30:15.342Z,101461
2017-09-29T04:32:43.445Z,101469
2017-09-29T04:35:11.526Z,101468
2017-09-29T04:37:39.626Z,101467
2017-09-29T04:40:07.772Z,101463
2017-09-29T04:42:35.869Z,101464
2017-09-29T04:45:06.048Z,101464
2017-09-29T04:47:34.147Z,101466
2017-09-29T04:50:02.240Z,101458
2017-09-29T04:52:30.323Z,101462
2017-09-29T04:54:58.426Z,101466
2017-09-29T04:57:28.379Z,101458
2017-09-29T04:59:56.503Z,101456
2017-09-29T05:02:25.452Z,101454
2017-09-29T05:04:53.554Z,101460
2017-09-29T05:07:21.646Z,101457
2017-09-29T05:09:51.555Z,101460
2017-09-29T05:12:19.683Z,101455
2017-09-29T05:14:48.703Z,101462
2017-09-29T05:17:16.798Z,101464
2017-09-29T05:19:44.916Z,101466
2017-09-29T05:22:12.995Z,101454
2017-09-29T05:24:41.106Z,101458
2017-09-29T05:27:09.187Z,101462
2017-09-29T05:29:37.289Z,101462
2017-09-29T05:32:05.379Z,101459
2017-09-29T05:34:33.487Z,101462
2017-09-29T05:37:01.595Z,101471
2017-09-29T05:39:30.435Z,101467
2017-09-29T05:41:58.536Z,101460
2017-09-29T05:44:26.632Z,101470
2017-09-29T05:46:54.736Z,101467
2017-09-29T05:49:22.831Z,101471
2017-09-29T05:51:50.950Z,101467
2017-09-29T05:54:20.030Z,101471
2017-09-29T05:56:48.147Z,101477
2017-09-29T05:59:16.252Z,101480
2017-09-29T06:01:44.363Z,101468
2017-09-29T06:04:12.462Z,101472
2017-09-29T06:06:40.544Z,101468
2017-09-29T06:09:08.640Z,101471
2017-09-29T06:11:36.783Z,101475
2017-09-29T06:14:04.908Z,101467
2017-09-29T06:16:32.995Z,101470
2017-09-29T06:19:02.226Z,101474
2017-09-29T06:21:30.428Z,101466
2017-09-29T06:23:59.613Z,101464
2017-09-29T06:26:27.895Z,101462
2017-09-29T06:28:55.998Z,101468
2017-09-29T06:31:24.343Z,101461
2017-09-29T06:33:52.460Z,101474
2017-09-29T06:36:21.612Z,101464
2017-09-29T06:38:49.691Z,101468
2017-09-29T06:41:17.807Z,101459
2017-09-29T06:43:46.676Z,101467
2017-09-29T06:46:14.797Z,101467
2017-09-29T06:48:42.883Z,101465
2017-09-29T06:51:10.963Z,101468
2017-09-29T06:53:39.055Z,101470
2017-09-29T06:56:07.152Z,101463
2017-09-29T06:58:35.266Z,101462
2017-09-29T07:01:03.647Z,101466
2017-09-29T07:03:31.827Z,101465
2017-09-29T07:05:59.999Z,101462
2017-09-29T07:08:28.263Z,101464
2017-09-29T07:10:56.663Z,101466
2017-09-29T07:13:24.766Z,101473
2017-09-29T07:15:52.862Z,101473
2017-09-29T07:18:21.949Z,101469
2017-09-29T07:20:50.263Z,101474
2017-09-29T07:23:18.483Z,101466
2017-09-29T07:25:49.303Z,101464
2017-09-29T07:28:17.988Z,101473
2017-09-29T07:30:47.369Z,101463
2017-09-29T07:33:15.872Z,101470
2017-09-29T07:35:43.987Z,101469
2017-09-29T07:38:12.855Z,101472
2017-09-29T07:40:40.980Z,101470
2017-09-29T07:43:09.090Z,101469
2017-09-29T07:45:37.171Z,101477
2017-09-29T07:48:05.295Z,101486
2017-09-29T07:50:33.399Z,101478
2017-09-29T07:53:01.608Z,101483
2017-09-29T07:55:30.455Z,101482
2017-09-29T07:57:58.567Z,101480
2017-09-29T08:00:27.675Z,101484
2017-09-29T08:02:56.553Z,101482
2017-09-29T08:05:26.403Z,101484
2017-09-29T08:07:54.514Z,101481
2017-09-29T08:10:22.602Z,101471
2017-09-29T08:12:50.696Z,101480
2017-09-29T08:15:18.762Z,101474
2017-09-29T08:17:46.883Z,101477
2017-09-29T08:20:14.971Z,101463
2017-09-29T08:22:43.056Z,101468
2017-09-29T08:25:11.151Z,101467
2017-09-29T08:27:39.467Z,101456
2017-09-29T08:30:07.585Z,101450
2017-09-29T08:32:36.472Z,101448
2017-09-29T08:35:04.614Z,101449
2017-09-29T08:37:32.711Z,101445
2017-09-29T08:40:00.832Z,101445
2017-09-29T08:42:28.925Z,101446
2017-09-29T08:44:57.027Z,101442
2017-09-29T08:47:25.147Z,101439
2017-09-29T08:49:53.233Z,101432
2017-09-29T08:52:21.394Z,101439
2017-09-29T08:54:49.491Z,101439
2017-09-29T08:57:17.587Z,101436
2017-09-29T08:59:45.764Z,101427
2017-09-29T09:02:13.885Z,101422
2017-09-29T09:04:42.007Z,101420
2017-09-29T09:07:10.347Z,101422
2017-09-29T09:09:38.531Z,101413
2017-09-29T09:12:06.712Z,101416
2017-09-29T09:14:34.820Z,101413
2017-09-29T09:17:02.919Z,101418
2017-09-29T09:19:31.052Z,101422
2017-09-29T09:21:59.135Z,101416
2017-09-29T09:24:27.211Z,101410
2017-09-29T09:26:56.273Z,101414
2017-09-29T09:29:24.386Z,101401
2017-09-29T09:31:53.453Z,101396
2017-09-29T09:34:21.542Z,101395
2017-09-29T09:36:49.661Z,101387
2017-09-29T09:39:17.771Z,101385
2017-09-29T09:41:45.889Z,101376
2017-09-29T09:44:14.896Z,101371
2017-09-29T09:46:43.059Z,101374
2017-09-29T09:49:11.924Z,101375
2017-09-29T09:51:40.019Z,101368
2017-09-29T09:54:08.872Z,101373
2017-09-29T09:56:37.004Z,101382
2017-09-29T09:59:05.155Z,101377
2017-09-29T10:01:33.268Z,101373
2017-09-29T10:04:01.344Z,101366
2017-09-29T10:06:29.462Z,101370
2017-09-29T10:08:58.525Z,101371
2017-09-29T10:11:26.632Z,101364
2017-09-29T10:13:54.748Z,101360
2017-09-29T10:16:22.859Z,101362
2017-09-29T10:18:50.990Z,101363
2017-09-29T10:21:19.106Z,101356
2017-09-29T10:23:47.297Z,101357
2017-09-29T10:26:16.183Z,101362
2017-09-29T10:28:45.063Z,101358
2017-09-29T10:31:13.377Z,101347
2017-09-29T10:33:41.464Z,101345
2017-09-29T10:36:09.784Z,101341
2017-09-29T10:38:37.910Z,101343
2017-09-29T10:41:05.994Z,101340
2017-09-29T10:43:34.128Z,101336
2017-09-29T10:46:02.265Z,101326
2017-09-29T10:48:30.363Z,101328
2017-09-29T10:50:58.480Z,101323
2017-09-29T10:53:28.351Z,101310
2017-09-29T10:55:56.675Z,101308
2017-09-29T10:58:24.784Z,101310
2017-09-29T11:00:52.883Z,101303
2017-09-29T11:03:22.800Z,101306
2017-09-29T11:05:51.689Z,101306
2017-09-29T11:08:20.549Z,101306
2017-09-29T11:10:49.553Z,101298
2017-09-29T11:13:17.672Z,101294
2017-09-29T11:15:45.753Z,101281
2017-09-29T11:18:13.871Z,101288
2017-09-29T11:20:41.947Z,101292
2017-09-29T11:23:10.815Z,101279
2017-09-29T11:25:39.931Z,101289
2017-09-29T11:28:08.037Z,101288
2017-09-29T11:30:36.126Z,101284
2017-09-29T11:33:04.204Z,101287
2017-09-29T11:35:32.449Z,101277
2017-09-29T11:38:00.571Z,101287
2017-09-29T11:40:28.644Z,101275
2017-09-29T11:42:57.696Z,101282
2017-09-29T11:45:25.931Z,101265
2017-09-29T11:47:54.026Z,101264
2017-09-29T11:50:22.120Z,101264
2017-09-29T11:52:50.212Z,101257
2017-09-29T11:55:18.292Z,101260
2017-09-29T11:57:47.790Z,101261
2017-09-29T12:00:15.908Z,101265
2017-09-29T12:02:44.020Z,101255
2017-09-29T12:05:12.145Z,101260
2017-09-29T12:07:40.221Z,101250
2017-09-29T12:10:08.373Z,101256
2017-09-29T12:12:36.791Z,101256
2017-09-29T12:15:06.698Z,101264
2017-09-29T12:17:36.622Z,101253
2017-09-29T12:20:05.667Z,101254
2017-09-29T12:22:33.773Z,101257
2017-09-29T12:25:01.844Z,101248
2017-09-29T12:27:30.066Z,101251
2017-09-29T12:29:58.154Z,101259
2017-09-29T12:32:26.223Z,101253
2017-09-29T12:34:54.363Z,101237
2017-09-29T12:37:23.371Z,101245
2017-09-29T12:39:51.471Z,101251
2017-09-29T12:42:19.568Z,101243
2017-09-29T12:44:48.206Z,101238
2017-09-29T12:47:17.259Z,101236
2017-09-29T12:49:45.340Z,101227
2017-09-29T12:52:13.751Z,101230
2017-09-29T12:54:42.750Z,101230
2017-09-29T12:57:10.882Z,101228
2017-09-29T12:59:39.020Z,101225
2017-09-29T13:02:21.941Z,101218
2017-09-29T13:04:50.053Z,101213
2017-09-29T13:07:18.136Z,101221
2017-09-29T13:09:46.243Z,101216
2017-09-29T13:12:14.430Z,101212
2017-09-29T13:14:42.508Z,101218
2017-09-29T13:17:11.367Z,101209
2017-09-29T13:19:39.587Z,101212
2017-09-29T13:22:07.700Z,101213
2017-09-29T13:24:35.974Z,101206
2017-09-29T13:27:04.064Z,101211
2017-09-29T13:29:32.142Z,101207
2017-09-29T13:32:00.233Z,101208
2017-09-29T13:34:28.343Z,101209
2017-09-29T13:36:56.481Z,101199
2017-09-29T13:39:24.608Z,101198
2017-09-29T13:41:52.719Z,101206
2017-09-29T13:44:20.818Z,101194
2017-09-29T13:46:48.915Z,101198
2017-09-29T13:49:17.794Z,101200
2017-09-29T13:51:47.744Z,101196
2017-09-29T13:54:15.970Z,101194
2017-09-29T13:56:44.116Z,101193
2017-09-29T13:59:12.217Z,101195
2017-09-29T14:01:40.307Z,101189
2017-09-29T14:04:08.405Z,101192
2017-09-29T14:06:36.511Z,101185
2017-09-29T14:09:04.598Z,101184
2017-09-29T14:11:32.748Z,101178
2017-09-29T14:14:00.866Z,101185
2017-09-29T14:16:28.967Z,101182
2017-09-29T14:18:57.060Z,101179
2017-09-29T14:21:25.180Z,101177
2017-09-29T14:23:53.474Z,101178
2017-09-29T14:26:22.322Z,101175
2017-09-29T14:28:50.432Z,101173
2017-09-29T14:31:18.507Z,101181
2017-09-29T14:33:48.197Z,101180
2017-09-29T14:36:17.229Z,101164
2017-09-29T14:38:45.326Z,101163
2017-09-29T14:41:14.035Z,101159
2017-09-29T14:43:42.122Z,101158
2017-09-29T14:46:10.518Z,101160
2017-09-29T14:48:38.600Z,101153
2017-09-29T14:51:06.679Z,101154
2017-09-29T14:53:34.814Z,101145
2017-09-29T14:56:02.901Z,101147
2017-09-29T14:58:31.764Z,101137
2017-09-29T15:01:00.914Z,101147
2017-09-29T15:03:29.014Z,101133
2017-09-29T15:05:57.095Z,101135
2017-09-29T15:08:25.215Z,101147
2017-09-29T15:10:53.335Z,101133
2017-09-29T15:13:21.421Z,101131
2017-09-29T15:15:49.517Z,101128
2017-09-29T15:18:18.381Z,101128
2017-09-29T15:20:47.680Z,101124
2017-09-29T15:23:15.764Z,101132
2017-09-29T15:25:43.872Z,101121
2017-09-29T15:28:11.987Z,101121
2017-09-29T15:30:40.095Z,101122
2017-09-29T15:33:08.218Z,101116
2017-09-29T15:35:36.283Z,101109
2017-09-29T15:38:04.570Z,101099
2017-09-29T15:40:32.688Z,101114
2017-09-29T15:43:00.770Z,101107
2017-09-29T15:45:31.744Z,101095
2017-09-29T15:47:59.855Z,101090
2017-09-29T15:50:29.763Z,101094
2017-09-29T15:52:57.855Z,101095
2017-09-29T15:55:26.335Z,101099
2017-09-29T15:57:54.463Z,101094
2017-09-29T16:00:22.564Z,101095
2017-09-29T16:02:51.111Z,101087
2017-09-29T16:05:19.214Z,101093
2017-09-29T16:07:47.839Z,101090
2017-09-29T16:10:16.179Z,101090
2017-09-29T16:12:44.321Z,101105
2017-09-29T16:15:12.425Z,101102
2017-09-29T16:17:40.530Z,101095
2017-09-29T16:20:08.644Z,101096
2017-09-29T16:22:36.766Z,101100
2017-09-29T16:25:04.899Z,101089
2017-09-29T16:27:32.987Z,101099
2017-09-29T16:30:01.323Z,101095
2017-09-29T16:32:29.408Z,101086
2017-09-29T16:34:57.495Z,101089
2017-09-29T16:37:25.580Z,101094
2017-09-29T16:39:53.686Z,101093
2017-09-29T16:42:21.790Z,101091
2017-09-29T16:44:50.919Z,101091
2017-09-29T16:47:19.021Z,101085
2017-09-29T16:49:47.126Z,101087
2017-09-29T16:52:15.460Z,101084
2017-09-29T16:54:43.569Z,101081
2017-09-29T16:57:11.679Z,101083
2017-09-29T16:59:39.782Z,101081
2017-09-29T17:02:08.283Z,101081
2017-09-29T17:04:36.367Z,101081
2017-09-29T17:07:04.472Z,101077
2017-09-29T17:09:32.568Z,101076
2017-09-29T17:12:00.687Z,101076
2017-09-29T17:14:28.771Z,101068
2017-09-29T17:16:57.571Z,101072
2017-09-29T17:19:25.674Z,101080
2017-09-29T17:21:54.639Z,101069
2017-09-29T17:24:23.451Z,101083
2017-09-29T17:26:51.547Z,101077
2017-09-29T17:29:19.638Z,101075
2017-09-29T17:31:48.869Z,101073
2017-09-29T17:34:16.984Z,101074
2017-09-29T17:36:45.082Z,101075
2017-09-29T17:39:13.205Z,101076
2017-09-29T17:41:41.303Z,101074
2017-09-29T17:44:10.595Z,101073
2017-09-29T17:46:38.695Z,101075
2017-09-29T17:49:07.561Z,101075
2017-09-29T17:51:35.656Z,101068
2017-09-29T17:54:03.759Z,101071
2017-09-29T17:56:32.120Z,101072
2017-09-29T17:59:00.471Z,101079
2017-09-29T18:01:29.342Z,101084
2017-09-29T18:03:57.475Z,101096
2017-09-29T18:06:25.577Z,101095
2017-09-29T18:08:53.660Z,101091
2017-09-29T18:11:22.215Z,101091
2017-09-29T18:13:50.301Z,101096
2017-09-29T18:16:19.005Z,101090
2017-09-29T18:18:47.940Z,101095
2017-09-29T18:21:16.615Z,101078
2017-09-29T18:23:44.766Z,101078
2017-09-29T18:26:13.118Z,101081
2017-09-29T18:28:41.951Z,101090
2017-09-29T18:31:10.361Z,101092
2017-09-29T18:33:38.521Z,101091
2017-09-29T18:36:06.881Z,101094
2017-09-29T18:38:35.068Z,101093
2017-09-29T18:41:04.603Z,101094
2017-09-29T18:43:35.166Z,101088
2017-09-29T18:46:04.699Z,101096
2017-09-29T18:48:33.091Z,101086
2017-09-29T18:51:01.251Z,101084
2017-09-29T18:53:30.116Z,101094
2017-09-29T18:55:58.551Z,101100
2017-09-29T18:58:26.723Z,101091
2017-09-29T19:00:55.217Z,101086
2017-09-29T19:03:23.649Z,101087
2017-09-29T19:05:51.792Z,101090
2017-09-29T19:08:20.956Z,101089
2017-09-29T19:10:49.053Z,101088
2017-09-29T19:13:17.390Z,101091
2017-09-29T19:15:46.402Z,101082
2017-09-29T19:18:14.907Z,101082
2017-09-29T19:20:43.014Z,101085
2017-09-29T19:23:12.211Z,101084
2017-09-29T19:25:40.428Z,101082
2017-09-29T19:28:08.519Z,101090
2017-09-29T19:30:36.615Z,101083
2017-09-29T19:33:05.134Z,101088
2017-09-29T19:35:33.236Z,101079
2017-09-29T19:38:01.359Z,101085
2017-09-29T19:40:29.642Z,101081
2017-09-29T19:42:57.775Z,101075
2017-09-29T19:45:26.212Z,101079
2017-09-29T19:47:55.297Z,101077
2017-09-29T19:50:25.520Z,101070
2017-09-29T19:52:53.776Z,101082
2017-09-29T19:55:22.315Z,101083
2017-09-29T19:57:50.595Z,101085
2017-09-29T20:00:18.787Z,101082
2017-09-29T20:02:46.910Z,101084
2017-09-29T20:05:15.781Z,101080
2017-09-29T20:07:43.968Z,101083
2017-09-29T20:10:12.883Z,101093
2017-09-29T20:12:41.097Z,101081
2017-09-29T20:15:09.183Z,101081
2017-09-29T20:17:37.293Z,101082
2017-09-29T20:20:05.489Z,101082
2017-09-29T20:22:34.632Z,101082
2017-09-29T20:25:02.759Z,101079
2017-09-29T20:27:31.107Z,101089
2017-09-29T20:30:00.823Z,101086
2017-09-29T20:32:29.692Z,101084
2017-09-29T20:34:57.795Z,101081
2017-09-29T20:37:26.980Z,101088
2017-09-29T20:39:55.251Z,101087
2017-09-29T20:42:24.211Z,101084
2017-09-29T20:44:54.372Z,101079
2017-09-29T20:47:22.645Z,101080
2017-09-29T20:49:50.750Z,101084
2017-09-29T20:52:18.873Z,101080
2017-09-29T20:54:47.357Z,101072
2017-09-29T20:57:15.548Z,101075
2017-09-29T20:59:44.423Z,101075
2017-09-29T21:02:13.624Z,101061
2017-09-29T21:04:41.838Z,101062
2017-09-29T21:07:09.940Z,101064
2017-09-29T21:09:38.042Z,101068
2017-09-29T21:12:06.161Z,101064
2017-09-29T21:14:34.276Z,101069
2017-09-29T21:17:02.352Z,101071
2017-09-29T21:19:31.300Z,101044
2017-09-29T21:21:59.411Z,101065
2017-09-29T21:24:27.519Z,101065
2017-09-29T21:26:55.815Z,101065
2017-09-29T21:29:23.920Z,101063
2017-09-29T21:31:52.036Z,101059
2017-09-29T21:34:20.900Z,101054
2017-09-29T21:36:48.996Z,101052
2017-09-29T21:39:17.088Z,101049
2017-09-29T21:41:45.271Z,101049
2017-09-29T21:44:13.388Z,101045
2017-09-29T21:46:41.534Z,101046
2017-09-29T21:49:09.671Z,101040
2017-09-29T21:51:37.764Z,101035
2017-09-29T21:54:05.868Z,101029
2017-09-29T21:56:33.963Z,101024
2017-09-29T21:59:02.075Z,101024
2017-09-29T22:01:30.172Z,101028
2017-09-29T22:03:58.448Z,101032
2017-09-29T22:06:26.564Z,101029
2017-09-29T22:08:54.656Z,101021
2017-09-29T22:11:22.918Z,101023
2017-09-29T22:13:51.795Z,101027
2017-09-29T22:16:19.911Z,101020
2017-09-29T22:18:48.059Z,101014
2017-09-29T22:21:16.919Z,101016
2017-09-29T22:23:46.051Z,101017
2017-09-29T22:26:14.903Z,101013
2017-09-29T22:28:43.007Z,101015
2017-09-29T22:31:11.103Z,101018
2017-09-29T22:33:39.192Z,101008
2017-09-29T22:36:08.043Z,101004
2017-09-29T22:38:36.966Z,101007
2017-09-29T22:41:05.045Z,101001
2017-09-29T22:43:33.170Z,101007
2017-09-29T22:46:01.295Z,100999
2017-09-29T22:48:29.371Z,101007
2017-09-29T22:50:57.484Z,100985
2017-09-29T22:53:25.561Z,101009
2017-09-29T22:55:54.444Z,101011
2017-09-29T22:58:22.632Z,101015
2017-09-29T23:00:51.207Z,101012
2017-09-29T23:03:19.324Z,101017
2017-09-29T23:05:47.417Z,101016
2017-09-29T23:08:15.622Z,101006
2017-09-29T23:10:43.711Z,101011
2017-09-29T23:13:12.631Z,101008
2017-09-29T23:15:40.746Z,101003
2017-09-29T23:18:08.897Z,101022
2017-09-29T23:20:36.978Z,101010
2017-09-29T23:23:05.089Z,101000
2017-09-29T23:25:33.207Z,100986
2017-09-29T23:28:01.536Z,100992
2017-09-29T23:30:30.514Z,100992
2017-09-29T23:32:58.636Z,100990
2017-09-29T23:35:27.542Z,100987
2017-09-29T23:37:55.803Z,100993
2017-09-29T23:40:23.976Z,100990
2017-09-29T23:42:53.063Z,100997
2017-09-29T23:45:21.154Z,100988
2017-09-29T23:47:49.289Z,100993
2017-09-29T23:50:17.699Z,100988
2017-09-29T23:52:46.752Z,100993
2017-09-29T23:55:15.647Z,100995
2017-09-29T23:57:44.497Z,100997
